Time;durP1;ratioP1;P1;durP2;ratioP2;P2;SDS_P1;SDS_P2;PMS_P1;PMS_P2;Temp;Humidity;BMP_temperature;BMP_pressure;BME280_temperature;BME280_humidity;BME280_pressure;Samples;Min_cycle;Max_cycle;Signal;HPM_P1;HPM_P2
2021/06/27 00:01:13;;;;;;;16.50;9.35;;;;;;;14.49;55.68;101986.97;4995937;28;20121;-67
2021/06/27 00:03:39;;;;;;;16.15;10.45;;;;;;;14.42;55.70;101993.41;4993945;28;20049;-67
2021/06/27 00:06:05;;;;;;;18.67;9.82;;;;;;;14.43;55.77;101987.22;4993952;28;20850;-66
2021/06/27 00:08:31;;;;;;;16.58;9.65;;;;;;;14.46;55.58;101987.13;4992741;28;20052;-66
2021/06/27 00:10:58;;;;;;;14.27;9.02;;;;;;;14.44;55.41;101981.06;4992807;28;20038;-66
2021/06/27 00:13:26;;;;;;;17.75;9.93;;;;;;;14.40;55.95;101982.91;4991445;28;20040;-68
2021/06/27 00:15:52;;;;;;;18.25;8.95;;;;;;;14.38;55.77;101979.47;4997057;28;20088;-67
2021/06/27 00:18:20;;;;;;;14.48;9.10;;;;;;;14.40;55.82;101988.16;4993345;28;20043;-67
2021/06/27 00:20:47;;;;;;;14.35;8.98;;;;;;;14.48;55.78;101985.28;4991097;28;20069;-66
2021/06/27 00:23:15;;;;;;;14.00;8.38;;;;;;;14.49;55.57;101982.56;5001858;28;20037;-67
2021/06/27 00:25:42;;;;;;;18.75;10.13;;;;;;;14.48;55.82;101985.28;4992843;28;20022;-67
2021/06/27 00:28:08;;;;;;;17.40;9.35;;;;;;;14.52;55.53;101989.47;4990901;28;20034;-67
2021/06/27 00:30:37;;;;;;;15.48;9.57;;;;;;;14.54;55.54;101979.75;4996676;28;20204;-68
2021/06/27 00:33:04;;;;;;;17.60;9.73;;;;;;;14.52;55.57;101986.84;4992928;28;20034;-69
2021/06/27 00:35:31;;;;;;;19.27;10.00;;;;;;;14.64;54.85;101982.91;4991455;28;20050;-68
2021/06/27 00:37:57;;;;;;;16.95;9.55;;;;;;;14.58;55.12;101978.72;4992237;28;20038;-66
2021/06/27 00:40:25;;;;;;;16.75;11.77;;;;;;;14.68;54.66;101977.44;4990755;28;20156;-68
2021/06/27 00:42:51;;;;;;;21.23;12.13;;;;;;;14.73;54.22;101972.84;4991288;28;20069;-68
2021/06/27 00:45:19;;;;;;;17.67;11.23;;;;;;;14.63;54.62;101970.66;4994358;28;20049;-68
2021/06/27 00:47:46;;;;;;;23.45;12.07;;;;;;;14.62;54.68;101975.06;4994069;28;20475;-67
2021/06/27 00:50:15;;;;;;;18.33;10.73;;;;;;;14.70;54.56;101974.75;4991738;28;20033;-67
2021/06/27 00:52:43;;;;;;;19.55;11.40;;;;;;;14.68;54.44;101982.72;4994424;28;20084;-67
2021/06/27 00:55:09;;;;;;;24.02;10.90;;;;;;;14.61;54.33;101975.97;4995019;28;20080;-66
2021/06/27 00:57:36;;;;;;;18.30;11.32;;;;;;;14.55;54.45;101986.75;4993222;28;20504;-66
2021/06/27 01:00:12;;;;;;;24.55;11.05;;;;;;;14.62;54.59;101987.38;4992489;28;20030;-70
2021/06/27 01:02:38;;;;;;;22.75;12.02;;;;;;;14.63;54.23;101989.91;4993124;28;20524;-68
2021/06/27 01:05:06;;;;;;;16.13;10.52;;;;;;;14.51;54.44;101987.78;4993573;28;21624;-67
2021/06/27 01:07:32;;;;;;;20.63;12.30;;;;;;;14.46;54.33;101977.44;4996062;28;20129;-67
2021/06/27 01:09:57;;;;;;;23.23;12.40;;;;;;;14.37;54.32;101972.50;4994093;28;20273;-67
2021/06/27 01:12:23;;;;;;;22.50;11.55;;;;;;;14.30;54.65;101969.25;4995811;28;20045;-68
2021/06/27 01:14:49;;;;;;;18.67;11.63;;;;;;;14.27;54.73;101974.63;4997020;28;20479;-68
2021/06/27 01:17:15;;;;;;;20.08;11.70;;;;;;;14.49;54.05;101974.69;4996614;28;20025;-67
2021/06/27 01:19:40;;;;;;;18.65;10.68;;;;;;;14.50;53.82;101975.53;5003896;28;20494;-67
2021/06/27 01:22:06;;;;;;;18.25;11.50;;;;;;;14.36;54.10;101971.63;4998215;28;20038;-68
2021/06/27 01:24:31;;;;;;;19.40;11.30;;;;;;;14.35;54.32;101975.19;5003125;28;20026;-67
2021/06/27 01:26:57;;;;;;;17.90;10.25;;;;;;;14.34;54.26;101973.47;4994859;28;20494;-67
2021/06/27 01:29:22;;;;;;;19.92;10.73;;;;;;;14.25;54.06;101986.09;4995380;28;20042;-66
2021/06/27 01:31:48;;;;;;;17.95;9.85;;;;;;;14.31;54.14;101980.63;4994379;28;20513;-66
2021/06/27 01:34:14;;;;;;;20.40;11.50;;;;;;;14.30;54.15;101977.16;4993545;28;20120;-66
2021/06/27 01:36:40;;;;;;;13.77;9.15;;;;;;;14.31;53.83;101973.59;4998097;28;20042;-67
2021/06/27 01:39:07;;;;;;;17.42;9.30;;;;;;;14.24;53.62;101969.47;4993141;28;20034;-67
2021/06/27 01:41:33;;;;;;;18.75;10.77;;;;;;;14.13;53.95;101975.16;4997737;28;20037;-68
2021/06/27 01:43:58;;;;;;;15.82;8.88;;;;;;;14.20;54.02;101970.50;4991924;28;20474;-67
2021/06/27 01:46:24;;;;;;;16.08;9.40;;;;;;;14.23;53.84;101965.16;5003186;28;20523;-67
2021/06/27 01:48:49;;;;;;;17.92;10.00;;;;;;;14.19;53.75;101970.56;4994390;28;20150;-67
2021/06/27 01:51:17;;;;;;;14.00;7.68;;;;;;;14.14;54.08;101965.47;4998708;28;20045;-67
2021/06/27 01:53:43;;;;;;;15.52;8.38;;;;;;;14.13;54.01;101966.41;4992895;28;20042;-67
2021/06/27 01:56:09;;;;;;;19.15;9.48;;;;;;;14.21;54.17;101969.63;4994594;28;20026;-67
2021/06/27 01:58:43;;;;;;;21.60;11.40;;;;;;;14.21;53.58;101971.34;5013674;28;20053;-67
2021/06/27 02:01:15;;;;;;;16.45;10.57;;;;;;;14.14;53.99;101965.47;4993861;28;20499;-67
2021/06/27 02:03:41;;;;;;;17.73;9.60;;;;;;;14.23;53.74;101969.53;4994767;28;20852;-67
2021/06/27 02:06:09;;;;;;;17.40;8.93;;;;;;;14.22;53.80;101968.69;4994159;28;20034;-67
2021/06/27 02:08:36;;;;;;;13.98;8.27;;;;;;;14.21;54.01;101974.00;4993267;28;20076;-67
2021/06/27 02:11:05;;;;;;;18.70;9.45;;;;;;;14.09;53.82;101970.06;4994848;28;20619;-67
2021/06/27 02:13:31;;;;;;;14.07;9.68;;;;;;;14.02;54.13;101965.94;4993538;28;20049;-66
2021/06/27 02:15:58;;;;;;;16.40;9.02;;;;;;;14.04;54.01;101964.13;5001698;28;20267;-66
2021/06/27 02:18:38;;;;;;;16.58;9.60;;;;;;;13.99;54.27;101966.06;4997372;28;20046;-67
2021/06/27 02:21:16;;;;;;;17.45;8.80;;;;;;;13.96;54.89;101953.03;5002548;28;20095;-67
2021/06/27 02:23:42;;;;;;;15.50;8.98;;;;;;;13.91;54.84;101954.06;4995855;28;20085;-67
2021/06/27 02:26:08;;;;;;;15.48;8.23;;;;;;;14.01;55.00;101953.72;4995824;28;20044;-67
2021/06/27 02:28:34;;;;;;;13.25;8.23;;;;;;;13.97;54.63;101958.25;4995253;28;20514;-70
2021/06/27 02:31:02;;;;;;;13.73;7.93;;;;;;;13.99;54.59;101945.06;4993455;28;20030;-69
2021/06/27 02:33:28;;;;;;;17.42;8.25;;;;;;;13.96;54.90;101947.78;4996434;28;20069;-70
2021/06/27 02:35:55;;;;;;;17.35;9.35;;;;;;;14.00;55.32;101949.38;4994146;28;20053;-69
2021/06/27 02:38:21;;;;;;;18.50;9.10;;;;;;;13.82;55.80;101941.25;4995391;28;20038;-70
2021/06/27 02:40:47;;;;;;;21.50;8.73;;;;;;;13.91;54.91;101943.53;4995667;28;20081;-69
2021/06/27 02:43:14;;;;;;;13.52;7.95;;;;;;;13.90;54.99;101933.97;5000949;28;20030;-68
2021/06/27 02:45:41;;;;;;;13.35;7.80;;;;;;;14.04;54.70;101932.59;4993966;28;20033;-69
2021/06/27 02:48:07;;;;;;;12.75;7.05;;;;;;;14.00;54.85;101936.22;4995652;28;20038;-69
2021/06/27 02:50:35;;;;;;;13.45;8.50;;;;;;;13.98;55.06;101932.81;4994776;28;20738;-70
2021/06/27 02:53:01;;;;;;;13.60;8.20;;;;;;;13.77;55.72;101935.31;4994267;28;20034;-69
2021/06/27 02:55:26;;;;;;;13.88;7.18;;;;;;;13.96;55.07;101924.97;4995433;28;20579;-69
2021/06/27 02:57:52;;;;;;;11.57;7.88;;;;;;;13.87;55.45;101931.41;4994253;28;20130;-68
2021/06/27 03:00:20;;;;;;;14.27;8.43;;;;;;;13.75;55.64;101931.03;4996127;28;20069;-68
2021/06/27 03:02:46;;;;;;;13.13;7.63;;;;;;;13.84;55.76;101926.28;4993949;28;20038;-67
2021/06/27 03:05:12;;;;;;;16.73;8.43;;;;;;;13.91;55.11;101925.16;4993389;28;20372;-67
2021/06/27 03:07:39;;;;;;;14.48;8.02;;;;;;;13.94;55.40;101921.53;4993146;28;20206;-67
2021/06/27 03:10:07;;;;;;;13.07;8.00;;;;;;;14.10;54.47;101932.34;4997293;28;20479;-68
2021/06/27 03:12:32;;;;;;;15.15;8.35;;;;;;;13.81;55.56;101929.03;5003441;28;20069;-69
2021/06/27 03:14:58;;;;;;;16.00;8.05;;;;;;;13.99;54.94;101924.03;4993713;28;20081;-68
2021/06/27 03:17:23;;;;;;;15.75;9.55;;;;;;;14.02;55.01;101923.91;4996499;28;20041;-68
2021/06/27 03:19:49;;;;;;;13.00;7.40;;;;;;;13.90;55.33;101930.47;4996174;28;20025;-67
2021/06/27 03:22:15;;;;;;;12.27;7.63;;;;;;;13.93;55.28;101928.56;4994192;28;20026;-68
2021/06/27 03:24:41;;;;;;;14.43;7.78;;;;;;;14.07;55.02;101930.69;4992484;28;20124;-67
2021/06/27 03:27:07;;;;;;;10.98;7.65;;;;;;;14.13;54.54;101932.22;4994612;28;20044;-71
2021/06/27 03:29:32;;;;;;;15.27;7.90;;;;;;;14.15;54.24;101931.25;4997831;28;20030;-71
2021/06/27 03:31:58;;;;;;;14.10;7.78;;;;;;;14.13;54.50;101922.56;4983915;28;20046;-71
2021/06/27 03:34:23;;;;;;;14.13;8.98;;;;;;;14.05;54.67;101923.75;4994612;28;20034;-70
2021/06/27 03:36:49;;;;;;;15.77;8.40;;;;;;;14.09;54.69;101920.13;4995910;28;20041;-70
2021/06/27 03:39:18;;;;;;;14.35;7.68;;;;;;;14.06;55.20;101921.09;4994847;28;20030;-70
2021/06/27 03:41:47;;;;;;;12.85;8.32;;;;;;;14.09;55.14;101922.75;5001355;28;20085;-71
2021/06/27 03:44:13;;;;;;;10.85;8.07;;;;;;;14.03;55.18;101920.34;5000084;28;20586;-70
2021/06/27 03:46:39;;;;;;;13.40;7.47;;;;;;;14.08;55.16;101924.53;4994191;28;20045;-71
2021/06/27 03:49:04;;;;;;;16.00;8.10;;;;;;;14.21;54.57;101924.91;4994394;28;20030;-71
2021/06/27 03:51:30;;;;;;;11.70;7.47;;;;;;;14.22;54.53;101921.34;4994185;28;20033;-70
2021/06/27 03:53:56;;;;;;;16.83;8.18;;;;;;;14.14;54.93;101923.41;4994591;28;20042;-70
2021/06/27 03:56:22;;;;;;;15.15;8.30;;;;;;;14.27;54.52;101929.91;4995917;28;20042;-68
2021/06/27 03:58:49;;;;;;;15.07;8.45;;;;;;;14.28;54.59;101922.91;4994362;28;20038;-68
2021/06/27 04:01:15;;;;;;;14.27;7.90;;;;;;;14.22;54.95;101918.72;4991883;28;20157;-67
2021/06/27 04:03:41;;;;;;;11.40;7.65;;;;;;;14.38;54.38;101921.59;4993016;28;20042;-68
2021/06/27 04:06:06;;;;;;;13.18;7.65;;;;;;;14.45;54.26;101927.50;4996838;28;20034;-67
2021/06/27 04:08:33;;;;;;;14.05;8.57;;;;;;;14.54;53.91;101935.91;5007962;28;20044;-68
2021/06/27 04:10:59;;;;;;;15.13;8.10;;;;;;;14.59;53.98;101941.00;4993466;28;20069;-67
2021/06/27 04:13:29;;;;;;;11.88;7.90;;;;;;;14.60;54.01;101937.44;4991622;28;20113;-68
2021/06/27 04:15:56;;;;;;;15.45;8.80;;;;;;;14.54;54.45;101937.66;4993992;28;20456;-67
2021/06/27 04:18:23;;;;;;;13.98;8.65;;;;;;;14.68;54.23;101940.63;4994465;28;20128;-67
2021/06/27 04:20:49;;;;;;;15.30;8.18;;;;;;;14.81;53.97;101948.00;4993769;28;20045;-67
2021/06/27 04:23:15;;;;;;;12.93;7.13;;;;;;;14.73;53.85;101948.31;4993096;28;20018;-68
2021/06/27 04:25:41;;;;;;;16.55;9.77;;;;;;;14.74;54.24;101945.59;4993633;28;20479;-66
2021/06/27 04:28:07;;;;;;;16.65;7.90;;;;;;;14.79;53.78;101940.19;4989398;28;20041;-67
2021/06/27 04:30:34;;;;;;;15.65;7.55;;;;;;;14.73;54.82;101940.44;4992640;28;20038;-67
2021/06/27 04:33:00;;;;;;;14.15;8.68;;;;;;;14.80;54.43;101933.13;4991859;28;20034;-67
2021/06/27 04:35:25;;;;;;;17.65;7.70;;;;;;;15.00;54.24;101932.31;4992023;28;20165;-69
2021/06/27 04:37:51;;;;;;;9.52;6.70;;;;;;;15.05;54.19;101927.69;4999547;28;20041;-69
2021/06/27 04:40:16;;;;;;;12.02;7.43;;;;;;;15.35;53.90;101925.56;5003607;28;20034;-66
2021/06/27 04:42:42;;;;;;;14.10;8.77;;;;;;;15.49;52.90;101925.81;4995228;28;20030;-71
2021/06/27 04:45:08;;;;;;;11.73;7.57;;;;;;;15.65;52.95;101930.41;5004187;28;20112;-72
2021/06/27 04:47:39;;;;;;;14.85;8.82;;;;;;;15.79;52.79;101927.97;4999395;28;20807;-71
2021/06/27 04:50:05;;;;;;;14.70;7.00;;;;;;;15.86;52.85;101928.56;4998211;28;20040;-71
2021/06/27 04:52:34;;;;;;;15.85;7.65;;;;;;;15.93;52.84;101922.06;4996718;28;20422;-68
2021/06/27 04:55:01;;;;;;;14.68;7.97;;;;;;;16.08;52.39;101934.59;4999049;28;20471;-69
2021/06/27 04:57:26;;;;;;;11.60;7.63;;;;;;;16.23;52.19;101935.66;5001515;28;20045;-69
2021/06/27 04:59:52;;;;;;;13.68;7.45;;;;;;;16.30;51.87;101937.06;4997332;28;20684;-69
2021/06/27 05:02:18;;;;;;;12.98;7.53;;;;;;;16.53;51.51;101932.47;5002966;28;20382;-66
2021/06/27 05:04:43;;;;;;;12.48;7.47;;;;;;;16.67;50.97;101929.19;4999833;28;20466;-67
2021/06/27 05:07:09;;;;;;;13.00;7.85;;;;;;;16.80;50.39;101925.88;4996730;28;20038;-67
2021/06/27 05:09:34;;;;;;;13.40;8.50;;;;;;;16.93;49.54;101919.97;4996113;28;20124;-67
2021/06/27 05:12:00;;;;;;;15.10;8.02;;;;;;;17.47;49.11;101918.06;5010258;28;20038;-68
2021/06/27 05:14:25;;;;;;;9.48;7.22;;;;;;;17.78;47.98;101921.72;4996396;28;20034;-71
2021/06/27 05:16:51;;;;;;;13.52;7.07;;;;;;;19.02;45.32;101916.53;4997676;28;20044;-71
2021/06/27 05:19:16;;;;;;;10.75;7.03;;;;;;;19.19;43.96;101927.00;4998418;28;20072;-71
2021/06/27 05:21:42;;;;;;;10.88;6.38;;;;;;;19.35;44.27;101915.47;4995148;28;20509;-71
2021/06/27 05:24:08;;;;;;;11.68;6.43;;;;;;;20.28;42.25;101922.91;4996118;28;20037;-70
2021/06/27 05:26:33;;;;;;;8.48;6.40;;;;;;;20.56;41.20;101920.22;4996199;28;20108;-67
2021/06/27 05:28:59;;;;;;;11.38;7.13;;;;;;;20.06;42.01;101911.91;4992970;28;20030;-66
2021/06/27 05:31:24;;;;;;;11.73;6.32;;;;;;;20.74;40.32;101913.69;4995505;28;20487;-66
2021/06/27 05:33:50;;;;;;;9.43;6.57;;;;;;;20.61;40.22;101918.13;4993150;28;20061;-67
2021/06/27 05:36:15;;;;;;;10.80;6.85;;;;;;;21.28;39.02;101910.91;4998605;28;20528;-66
2021/06/27 05:38:41;;;;;;;10.55;7.22;;;;;;;20.76;41.04;101910.94;4996184;28;20045;-66
2021/06/27 05:41:06;;;;;;;10.57;6.95;;;;;;;19.44;42.88;101917.53;4993756;28;20036;-68
2021/06/27 05:43:32;;;;;;;13.40;6.63;;;;;;;20.14;42.51;101914.94;4996433;28;20483;-68
2021/06/27 05:45:58;;;;;;;9.82;6.70;;;;;;;20.52;41.24;101914.25;4995225;28;20749;-67
2021/06/27 05:48:24;;;;;;;13.98;7.18;;;;;;;20.18;41.38;101923.56;4994028;28;20045;-67
2021/06/27 05:50:49;;;;;;;7.63;5.97;;;;;;;19.58;42.85;101914.91;4994891;28;20030;-67
2021/06/27 05:53:15;;;;;;;10.10;6.05;;;;;;;20.35;41.44;101917.16;5002524;28;20049;-68
2021/06/27 05:55:40;;;;;;;11.75;6.05;;;;;;;19.88;41.91;101919.25;4997364;28;20029;-68
2021/06/27 05:58:06;;;;;;;12.40;7.25;;;;;;;19.26;43.91;101916.88;5001099;28;20036;-66
2021/06/27 06:00:31;;;;;;;13.57;6.72;;;;;;;19.37;43.48;101910.91;4999757;28;20041;-66
2021/06/27 06:02:57;;;;;;;9.90;6.50;;;;;;;19.96;42.45;101909.00;4995504;28;20038;-65
2021/06/27 06:05:22;;;;;;;12.65;6.68;;;;;;;19.47;43.07;101907.59;4993110;28;20057;-67
2021/06/27 06:07:49;;;;;;;8.50;5.53;;;;;;;19.54;42.79;101907.22;4996928;28;20085;-68
2021/06/27 06:10:15;;;;;;;10.15;6.88;;;;;;;18.47;45.48;101908.22;5001277;28;20041;-67
2021/06/27 06:12:40;;;;;;;10.75;6.45;;;;;;;18.44;45.45;101908.38;4993732;28;20045;-67
2021/06/27 06:15:06;;;;;;;15.70;6.65;;;;;;;18.68;45.34;101905.25;4994480;28;20113;-67
2021/06/27 06:17:32;;;;;;;10.73;6.97;;;;;;;19.23;44.59;101902.00;4994564;28;20493;-67
2021/06/27 06:19:57;;;;;;;13.90;7.30;;;;;;;18.94;44.40;101906.38;4996059;28;20034;-67
2021/06/27 06:22:23;;;;;;;9.82;6.78;;;;;;;18.73;44.85;101905.00;4993856;28;20095;-67
2021/06/27 06:24:48;;;;;;;16.10;8.70;;;;;;;19.42;43.22;101900.88;5003350;28;20046;-68
2021/06/27 06:27:14;;;;;;;8.75;6.38;;;;;;;19.34;43.46;101893.38;4994728;28;20061;-68
2021/06/27 06:29:40;;;;;;;14.25;7.68;;;;;;;19.03;43.61;101910.28;4995974;28;20324;-67
2021/06/27 06:32:06;;;;;;;8.85;6.78;;;;;;;18.48;45.24;101901.13;4989451;28;20025;-67
2021/06/27 06:34:32;;;;;;;12.05;7.13;;;;;;;19.71;41.92;101894.63;4994917;28;20623;-67
2021/06/27 06:36:57;;;;;;;10.32;5.93;;;;;;;19.47;43.07;101896.13;4994273;28;20045;-66
2021/06/27 06:39:23;;;;;;;6.97;5.13;;;;;;;21.01;39.90;101888.88;4996263;28;20034;-67
2021/06/27 06:41:48;;;;;;;8.52;5.28;;;;;;;21.36;39.05;101905.06;4991764;28;20042;-67
2021/06/27 06:44:14;;;;;;;8.00;5.93;;;;;;;20.58;40.72;101899.75;4997574;28;20030;-67
2021/06/27 06:46:40;;;;;;;9.98;5.82;;;;;;;20.63;40.13;101900.28;4992741;28;20036;-67
2021/06/27 06:49:06;;;;;;;11.45;6.15;;;;;;;19.74;41.82;101906.00;4983855;28;20046;-67
2021/06/27 06:51:32;;;;;;;14.27;7.03;;;;;;;19.10;43.36;101909.00;4996597;28;20513;-67
2021/06/27 06:53:57;;;;;;;11.93;6.68;;;;;;;19.59;42.89;101908.69;4995171;28;20034;-67
2021/06/27 06:56:24;;;;;;;10.27;6.50;;;;;;;18.67;44.04;101914.97;4998883;28;20034;-67
2021/06/27 06:58:50;;;;;;;16.92;9.35;;;;;;;19.12;43.68;101922.97;4996785;28;20040;-67
2021/06/27 07:01:16;;;;;;;12.77;5.85;;;;;;;18.77;44.12;101915.31;4994490;28;20030;-66
2021/06/27 07:03:43;;;;;;;10.55;7.20;;;;;;;19.18;43.55;101922.63;4992227;28;20137;-66
2021/06/27 07:06:08;;;;;;;10.05;7.20;;;;;;;19.58;41.67;101922.88;4992379;28;20034;-67
2021/06/27 07:08:34;;;;;;;10.52;6.85;;;;;;;19.57;41.93;101925.59;4994532;28;20593;-67
2021/06/27 07:10:59;;;;;;;10.00;5.75;;;;;;;19.48;42.96;101924.38;5000861;28;20038;-68
2021/06/27 07:13:25;;;;;;;10.60;6.35;;;;;;;18.99;42.61;101925.53;4997440;28;20431;-68
2021/06/27 07:15:50;;;;;;;9.32;6.57;;;;;;;19.03;43.64;101924.41;4993097;28;20039;-67
2021/06/27 07:18:16;;;;;;;8.10;5.95;;;;;;;19.08;43.63;101932.09;4994165;28;20026;-69
2021/06/27 07:20:41;;;;;;;10.88;6.10;;;;;;;19.12;43.18;101938.03;4995103;28;20117;-68
2021/06/27 07:23:07;;;;;;;8.10;5.47;;;;;;;19.34;42.46;101934.94;4995365;28;20049;-67
2021/06/27 07:25:33;;;;;;;11.68;6.55;;;;;;;19.38;43.05;101932.03;4995583;28;20072;-65
2021/06/27 07:27:58;;;;;;;10.38;7.35;;;;;;;19.29;42.72;101921.97;4979034;28;20057;-66
2021/06/27 07:30:24;;;;;;;12.70;7.05;;;;;;;19.43;42.08;101926.44;4994706;28;20030;-70
2021/06/27 07:32:49;;;;;;;9.80;7.00;;;;;;;19.12;43.47;101930.94;4994280;28;20069;-70
2021/06/27 07:35:15;;;;;;;16.85;7.85;;;;;;;19.26;43.05;101928.31;4997585;28;20442;-70
2021/06/27 07:37:41;;;;;;;9.23;5.88;;;;;;;19.68;41.38;101923.13;4993070;28;20062;-68
2021/06/27 07:40:09;;;;;;;10.88;7.18;;;;;;;19.92;41.73;101921.59;4993397;28;20037;-68
2021/06/27 07:42:35;;;;;;;6.60;5.65;;;;;;;19.28;42.67;101929.09;4992467;28;20030;-69
2021/06/27 07:45:00;;;;;;;12.95;5.75;;;;;;;19.62;41.83;101927.03;4978840;28;20050;-67
2021/06/27 07:47:26;;;;;;;7.93;5.60;;;;;;;19.93;41.46;101933.09;4994712;28;20595;-66
2021/06/27 07:49:51;;;;;;;7.88;6.43;;;;;;;19.88;40.17;101933.38;5002503;28;20038;-65
2021/06/27 07:52:17;;;;;;;6.95;5.32;;;;;;;20.02;41.03;101932.50;4998601;28;20681;-67
2021/06/27 07:54:42;;;;;;;8.73;6.03;;;;;;;20.12;40.45;101932.75;4996187;28;20061;-67
2021/06/27 07:57:08;;;;;;;12.88;5.70;;;;;;;20.06;40.11;101922.53;4993948;28;20152;-67
2021/06/27 07:59:34;;;;;;;7.70;5.88;;;;;;;21.83;37.55;101923.97;4995202;28;20076;-67
2021/06/27 08:01:59;;;;;;;9.27;5.38;;;;;;;22.14;36.75;101926.13;4991839;28;20042;-67
2021/06/27 08:04:25;;;;;;;6.35;4.90;;;;;;;21.79;36.83;101928.66;4983680;28;20054;-67
2021/06/27 08:06:51;;;;;;;9.52;5.65;;;;;;;22.39;36.25;101933.16;4992793;28;20038;-67
2021/06/27 08:09:16;;;;;;;7.72;5.18;;;;;;;23.66;33.62;101935.09;4992688;28;20034;-67
2021/06/27 08:11:42;;;;;;;6.45;5.47;;;;;;;22.99;33.89;101933.19;4992820;28;20056;-66
2021/06/27 08:14:09;;;;;;;6.50;4.78;;;;;;;23.70;33.05;101933.88;4994644;28;20030;-68
2021/06/27 08:16:34;;;;;;;6.75;5.10;;;;;;;24.20;32.44;101933.47;4997058;28;20646;-67
2021/06/27 08:19:00;;;;;;;6.72;5.53;;;;;;;23.49;33.68;101939.09;4997358;28;20030;-65
2021/06/27 08:21:25;;;;;;;6.97;4.63;;;;;;;25.45;30.84;101929.19;4995414;28;20077;-68
2021/06/27 08:23:51;;;;;;;5.65;4.40;;;;;;;25.38;30.46;101925.34;4997279;28;20034;-65
2021/06/27 08:26:17;;;;;;;8.13;5.88;;;;;;;23.92;32.61;101926.81;4995562;28;20033;-65
2021/06/27 08:28:42;;;;;;;10.18;4.78;;;;;;;23.79;33.77;101909.13;4996589;28;20034;-65
2021/06/27 08:31:08;;;;;;;7.35;5.18;;;;;;;23.93;33.06;101920.53;4997992;28;20447;-67
2021/06/27 08:33:34;;;;;;;9.98;5.20;;;;;;;23.36;34.01;101917.84;4996454;28;20146;-67
2021/06/27 08:35:59;;;;;;;8.18;5.80;;;;;;;23.40;33.62;101918.47;4996323;28;20085;-67
2021/06/27 08:38:25;;;;;;;9.98;6.15;;;;;;;22.23;35.64;101915.78;4996104;28;20041;-67
2021/06/27 08:40:54;;;;;;;8.75;5.65;;;;;;;23.07;34.45;101916.56;4996753;28;20585;-68
2021/06/27 08:43:24;;;;;;;5.68;4.00;;;;;;;24.13;32.23;101908.22;4997605;28;20636;-68
2021/06/27 08:45:52;;;;;;;8.32;5.13;;;;;;;24.62;32.31;101905.03;5001635;28;20118;-68
2021/06/27 08:48:19;;;;;;;8.02;4.90;;;;;;;24.92;30.87;101903.38;5000088;28;20049;-68
2021/06/27 08:50:45;;;;;;;8.65;4.43;;;;;;;25.35;30.51;101909.56;4997269;28;20488;-66
2021/06/27 08:53:11;;;;;;;6.78;3.53;;;;;;;26.11;30.74;101901.94;4998112;28;20029;-67
2021/06/27 08:55:36;;;;;;;8.60;4.88;;;;;;;26.32;28.75;101893.78;4997674;28;20049;-68
2021/06/27 08:58:02;;;;;;;7.78;4.47;;;;;;;26.56;28.07;101890.66;4996976;28;20034;-68
2021/06/27 09:00:28;;;;;;;6.20;3.95;;;;;;;25.38;30.46;101894.09;4999684;28;20505;-68
2021/06/27 09:02:54;;;;;;;5.70;4.25;;;;;;;23.87;32.71;101905.84;4995674;28;20487;-69
2021/06/27 09:05:20;;;;;;;5.70;4.25;;;;;;;23.28;34.17;101904.28;4996230;28;20042;-67
2021/06/27 09:07:46;;;;;;;7.28;4.25;;;;;;;24.19;31.88;101910.38;4992688;28;20038;-71
2021/06/27 09:10:15;;;;;;;7.05;4.88;;;;;;;23.76;31.99;101917.34;4992455;28;20184;-68
2021/06/27 09:12:58;;;;;;;7.72;5.55;;;;;;;23.44;33.74;101903.91;4996719;28;20096;-68
2021/06/27 09:15:39;;;;;;;6.55;4.05;;;;;;;24.49;31.98;101909.69;4997558;28;20153;-68
2021/06/27 09:18:14;;;;;;;8.95;5.43;;;;;;;24.26;32.64;101906.25;4992671;28;20034;-67
2021/06/27 09:20:40;;;;;;;;;;;;;;;25.53;30.22;101909.78;4993413;28;20067;-67
2021/06/27 09:23:06;;;;;;;6.03;3.95;;;;;;;24.85;30.85;101902.22;4991988;28;19948;-67
2021/06/27 09:25:32;;;;;;;5.43;4.90;;;;;;;23.68;32.73;101906.47;4995191;28;20026;-67
2021/06/27 09:28:07;;;;;;;5.95;5.15;;;;;;;24.41;32.72;101905.00;4990118;28;20152;-67
2021/06/27 09:30:55;;;;;;;5.05;3.92;;;;;;;23.86;33.36;101903.31;4993599;28;20038;-67
2021/06/27 09:33:23;;;;;;;6.05;4.70;;;;;;;23.19;33.47;101911.16;4993628;28;20037;-67
2021/06/27 09:35:53;;;;;;;5.38;4.55;;;;;;;23.44;33.41;101909.25;5007607;28;20574;-68
2021/06/27 09:38:24;;;;;;;7.93;5.35;;;;;;;23.48;33.84;101915.22;4993070;28;20036;-67
2021/06/27 09:40:56;;;;;;;7.40;5.18;;;;;;;23.78;32.60;101922.56;4999707;28;20293;-67
2021/06/27 09:43:23;;;;;;;6.50;4.97;;;;;;;23.00;34.21;101911.72;4989635;28;20105;-68
2021/06/27 09:45:51;;;;;;;11.40;5.07;;;;;;;23.66;32.49;101911.06;4993682;28;20211;-67
2021/06/27 09:48:17;;;;;;;8.73;5.05;;;;;;;23.49;33.47;101907.06;4993429;28;20094;-71
2021/06/27 09:50:43;;;;;;;7.25;4.25;;;;;;;23.48;33.42;101904.53;4992703;28;20034;-69
2021/06/27 09:53:32;;;;;;;8.27;3.92;;;;;;;23.96;33.49;101905.09;4992185;28;20100;-67
2021/06/27 09:56:00;;;;;;;4.95;3.25;;;;;;;24.24;32.65;101898.34;5009516;28;20109;-66
2021/06/27 09:58:26;;;;;;;5.93;4.25;;;;;;;24.15;32.22;101900.94;4995509;28;20076;-67
2021/06/27 10:00:52;;;;;;;7.60;4.40;;;;;;;23.41;33.57;101905.03;4992329;28;20515;-67
2021/06/27 10:03:17;;;;;;;4.95;4.40;;;;;;;23.43;34.08;101894.22;4989199;28;21318;-66
2021/06/27 10:05:43;;;;;;;11.00;5.60;;;;;;;22.81;34.48;101895.47;4992131;28;20054;-67
2021/06/27 10:08:08;;;;;;;5.93;4.95;;;;;;;23.26;34.69;101886.69;4991093;28;20176;-67
2021/06/27 10:10:34;;;;;;;9.40;5.40;;;;;;;23.71;33.16;101884.00;4990996;28;20116;-67
2021/06/27 10:13:00;;;;;;;6.63;5.53;;;;;;;23.20;33.92;101894.16;4989156;28;20132;-67
2021/06/27 10:15:43;;;;;;;8.75;6.05;;;;;;;22.57;35.03;101892.81;4989826;28;20044;-67
2021/06/27 10:18:08;;;;;;;8.00;6.10;;;;;;;23.19;33.94;101897.81;5032366;22;20040;-69
2021/06/27 10:20:34;;;;;;;7.20;5.93;;;;;;;22.83;34.72;101890.84;5058547;28;20804;-67
2021/06/27 10:23:00;;;;;;;8.07;6.90;;;;;;;23.24;33.15;101886.78;5054883;28;20036;-67
2021/06/27 10:25:26;;;;;;;9.93;6.25;;;;;;;23.45;34.15;101880.75;5039965;28;20044;-67
2021/06/27 10:27:52;;;;;;;8.02;6.13;;;;;;;24.38;32.04;101880.31;5037980;28;20103;-67
2021/06/27 10:30:18;;;;;;;5.72;4.78;;;;;;;24.76;31.44;101866.41;5041403;28;20041;-66
2021/06/27 10:32:43;;;;;;;7.43;5.43;;;;;;;24.21;31.57;101879.91;5037771;28;20042;-68
2021/06/27 10:35:11;;;;;;;5.68;5.15;;;;;;;23.69;32.95;101881.47;5040066;28;20033;-68
2021/06/27 10:37:39;;;;;;;5.13;4.60;;;;;;;23.72;33.29;101878.56;5036636;28;20509;-67
2021/06/27 10:40:11;;;;;;;5.20;4.43;;;;;;;23.53;33.77;101875.66;5039326;28;20072;-67
2021/06/27 10:43:00;;;;;;;5.53;5.00;;;;;;;23.72;32.67;101883.03;5037566;28;20484;-68
2021/06/27 10:45:49;;;;;;;5.22;4.05;;;;;;;23.57;33.91;101874.47;5038680;28;20036;-67
2021/06/27 10:48:33;;;;;;;7.93;4.90;;;;;;;23.12;33.45;101875.28;5037945;28;20556;-67
2021/06/27 10:51:00;;;;;;;8.20;4.90;;;;;;;23.24;34.06;101870.78;5036534;28;20064;-67
2021/06/27 10:53:26;;;;;;;5.15;4.65;;;;;;;23.37;33.37;101876.88;5038712;28;20037;-67
2021/06/27 10:55:58;;;;;;;5.28;4.38;;;;;;;22.98;34.24;101871.00;5038205;28;20067;-67
2021/06/27 10:58:38;;;;;;;8.50;4.68;;;;;;;23.14;34.00;101881.34;5040903;28;20031;-67
2021/06/27 11:01:05;;;;;;;6.50;4.32;;;;;;;23.98;32.51;101881.78;5030234;28;20033;-68
2021/06/27 11:03:42;;;;;;;4.60;4.15;;;;;;;24.11;32.39;101873.63;5037027;28;20043;-68
2021/06/27 11:06:17;;;;;;;4.07;3.63;;;;;;;23.57;32.83;101871.78;5038239;28;20032;-67
2021/06/27 11:08:48;;;;;;;9.57;4.70;;;;;;;23.17;33.83;101864.25;5044271;28;20076;-67
2021/06/27 11:11:21;;;;;;;5.30;4.17;;;;;;;23.67;33.24;101859.38;5035229;28;20041;-67
2021/06/27 11:14:11;;;;;;;4.20;3.40;;;;;;;23.88;32.43;101864.84;5039210;28;20372;-68
2021/06/27 11:17:06;;;;;;;3.05;2.75;;;;;;;24.42;31.85;101868.44;5021829;28;20041;-67
2021/06/27 11:19:33;;;;;;;7.60;3.70;;;;;;;24.01;32.29;101867.34;5040536;28;20083;-68